Bakersfield, California
Current Conditions -  °F | °C
As of 2:54 PM on Sunday 21 Dec 2014 (Local Time) from KBFL Reporting Station
Overcast Overcast  
Wind Chill: 16°   Ceiling: 4200
Heat Index: 16°   Visibility: 9mi
Dew Point: 11°   Wind: 5mph
Humidity: 75%   Direction: 310°NW
Pressure: 30.23"   Gusts: NA
Location:  35.37°N, 119.01°W
Report Text: KBFL 212254Z 31004KT 9SM OVC042 16/11 A3023 RMK AO2 SLP236 T01560111
Loading
Personal Weather Stations






























Interactive Weather Map New forecast layout! Learn more

10-Day Weather Forecast

Advertisements
Track Severe Weather on mobile